Dati Storici

Data ora Umidita' aria (%) Temperatura aria (°C) Rad globale (W/m²) Gonioanemometro (°) Tacoanemometro (m/s) Pioggia (mm)
12-10-2012 18:40 74 % 18.1 3.521 197.908 0.311 0
12-10-2012 18:30 73.1 % 18.146 6.607 170.541 0.531 0
12-10-2012 18:20 71.8 % 18.261 16.554 195.087 0.349 0
12-10-2012 18:10 70.4 % 18.348 16.992 133.537 0.498 0
12-10-2012 18:00 68.2 % 18.668 20.957 104.615 0.585 0
12-10-2012 17:50 65.5 % 19.187 20.65 87.232 0.417 0
12-10-2012 17:40 63.3 % 19.372 41.267 181.401 0.225 0
12-10-2012 17:30 62.6 % 19.443 57.845 205.128 0.676 0
12-10-2012 17:20 61.2 % 19.819 80.217 229.121 0.666 0
12-10-2012 17:10 59.3 % 19.749 110.21 283.46 1.215 0
12-10-2012 17:00 58.6 % 19.644 110.524 299.336 0.943 0
12-10-2012 16:50 57.6 % 19.758 70.777 281.799 1.226 0
12-10-2012 16:40 55.7 % 20.195 80.918 300.639 1.251 0
12-10-2012 16:30 53.9 % 21.509 89.207 286.067 0.599 0
12-10-2012 16:20 53.6 % 21.785 283.139 40.438 0.691 0
12-10-2012 16:10 55 % 21.632 346.062 97.313 1.294 0
12-10-2012 16:00 55.7 % 21.262 363.915 10.505 1.122 0
12-10-2012 15:50 56.9 % 21.306 363.113 228.228 0.499 0
12-10-2012 15:40 57.4 % 21.212 389.694 332.386 1.085 0
12-10-2012 15:30 60.1 % 20.761 242.987 11.489 0.873 0

I dati sono presentati in modo automatico a scopo informativo. In seguito a verifica i dati possono subire modifiche o essere invalidati e non riportati negli archivi definitivi.